Hengchun, Taiwan
Current Conditions -  °F | °C
As of 10:00 PM on Tuesday 27 Jan 2015 (Local Time) from RCKH Reporting Station
Haze Haze  
Wind Chill: 70°   Ceiling: 2800
Heat Index: 70°   Visibility: 2.1mi
Dew Point: 64°   Wind: 6mph
Humidity: 83%   Direction: 350°N
Pressure: 30"   Gusts: NA
Location:  22°N, 120.75°E
Report Text: RCKH 271400Z 35005KT 310V030 3500 BR FEW012 BKN028 BKN05021/18 Q1016 NOSIG RMK A3001
Loading
Personal Weather Stations






























Interactive Weather Map New forecast layout! Learn more

10-Day Weather Forecast

Advertisements
Track Severe Weather on mobile